sensor_id;sensor_type;location;lat;lon;timestamp;pressure;altitude;pressure_sealevel;temperature;humidity
2673;BME280;1346;51.558;6.996;2022-09-24T00:01:10;100826.03;;;13.90;100.00
2673;BME280;1346;51.558;6.996;2022-09-24T00:03:39;100822.34;;;13.91;100.00
2673;BME280;1346;51.558;6.996;2022-09-24T00:06:07;100818.78;;;13.90;100.00
2673;BME280;1346;51.558;6.996;2022-09-24T00:08:36;100823.00;;;13.93;100.00
2673;BME280;1346;51.558;6.996;2022-09-24T00:14:44;100818.94;;;13.97;100.00
2673;BME280;1346;51.558;6.996;2022-09-24T00:17:11;100817.09;;;13.97;100.00
2673;BME280;1346;51.558;6.996;2022-09-24T00:19:38;100816.25;;;13.97;100.00
2673;BME280;1346;51.558;6.996;2022-09-24T00:22:05;100816.06;;;13.98;100.00
2673;BME280;1346;51.558;6.996;2022-09-24T00:24:33;100811.53;;;13.99;100.00
2673;BME280;1346;51.558;6.996;2022-09-24T00:27:18;100809.88;;;13.98;100.00
2673;BME280;1346;51.558;6.996;2022-09-24T00:29:44;100816.06;;;13.98;100.00
2673;BME280;1346;51.558;6.996;2022-09-24T00:32:11;100820.81;;;13.96;100.00
2673;BME280;1346;51.558;6.996;2022-09-24T00:34:38;100813.91;;;13.94;100.00
2673;BME280;1346;51.558;6.996;2022-09-24T00:37:05;100820.50;;;13.91;100.00
2673;BME280;1346;51.558;6.996;2022-09-24T00:39:33;100813.41;;;13.90;100.00
2673;BME280;1346;51.558;6.996;2022-09-24T00:42:01;100814.25;;;13.91;100.00
2673;BME280;1346;51.558;6.996;2022-09-24T00:44:47;100818.78;;;13.90;100.00
2673;BME280;1346;51.558;6.996;2022-09-24T00:47:34;100813.56;;;13.89;100.00
2673;BME280;1346;51.558;6.996;2022-09-24T00:50:07;100817.31;;;13.88;100.00
2673;BME280;1346;51.558;6.996;2022-09-24T00:52:42;100817.47;;;13.86;100.00
2673;BME280;1346;51.558;6.996;2022-09-24T00:55:13;100809.72;;;13.83;100.00
2673;BME280;1346;51.558;6.996;2022-09-24T00:57:41;100804.50;;;13.82;100.00
2673;BME280;1346;51.558;6.996;2022-09-24T01:00:11;100801.97;;;13.80;100.00
2673;BME280;1346;51.558;6.996;2022-09-24T01:02:42;100806.88;;;13.77;100.00
2673;BME280;1346;51.558;6.996;2022-09-24T01:05:10;100808.88;;;13.75;100.00
2673;BME280;1346;51.558;6.996;2022-09-24T01:07:37;100808.38;;;13.71;100.00
2673;BME280;1346;51.558;6.996;2022-09-24T01:10:05;100806.88;;;13.69;100.00
2673;BME280;1346;51.558;6.996;2022-09-24T01:12:42;100808.91;;;13.67;100.00
2673;BME280;1346;51.558;6.996;2022-09-24T01:15:19;100810.91;;;13.65;100.00
2673;BME280;1346;51.558;6.996;2022-09-24T01:17:56;100808.22;;;13.65;100.00
2673;BME280;1346;51.558;6.996;2022-09-24T01:20:57;100795.78;;;13.64;100.00
2673;BME280;1346;51.558;6.996;2022-09-24T01:24:00;100803.19;;;13.62;100.00
2673;BME280;1346;51.558;6.996;2022-09-24T01:26:51;100796.13;;;13.61;100.00
2673;BME280;1346;51.558;6.996;2022-09-24T01:29:35;100798.84;;;13.61;100.00
2673;BME280;1346;51.558;6.996;2022-09-24T01:32:10;100798.84;;;13.61;100.00
2673;BME280;1346;51.558;6.996;2022-09-24T01:34:44;100797.81;;;13.62;100.00
2673;BME280;1346;51.558;6.996;2022-09-24T01:37:16;100788.88;;;13.61;100.00
2673;BME280;1346;51.558;6.996;2022-09-24T01:39:44;100795.13;;;13.62;100.00
2673;BME280;1346;51.558;6.996;2022-09-24T01:42:13;100796.97;;;13.61;100.00
2673;BME280;1346;51.558;6.996;2022-09-24T01:44:43;100795.28;;;13.60;100.00
2673;BME280;1346;51.558;6.996;2022-09-24T01:47:15;100782.69;;;13.61;100.00
2673;BME280;1346;51.558;6.996;2022-09-24T01:49:44;100786.38;;;13.60;100.00
2673;BME280;1346;51.558;6.996;2022-09-24T01:52:15;100782.84;;;13.59;100.00
2673;BME280;1346;51.558;6.996;2022-09-24T01:54:44;100782.00;;;13.59;100.00
2673;BME280;1346;51.558;6.996;2022-09-24T01:57:20;100775.09;;;13.56;100.00
2673;BME280;1346;51.558;6.996;2022-09-24T01:59:54;100776.97;;;13.56;100.00
2673;BME280;1346;51.558;6.996;2022-09-24T02:02:27;100769.88;;;13.55;100.00
2673;BME280;1346;51.558;6.996;2022-09-24T02:05:02;100766.19;;;13.56;100.00
2673;BME280;1346;51.558;6.996;2022-09-24T02:07:35;100769.03;;;13.54;100.00
2673;BME280;1346;51.558;6.996;2022-09-24T02:10:05;100765.34;;;13.55;100.00
2673;BME280;1346;51.558;6.996;2022-09-24T02:12:35;100762.84;;;13.54;100.00
2673;BME280;1346;51.558;6.996;2022-09-24T02:15:10;100765.69;;;13.52;100.00
2673;BME280;1346;51.558;6.996;2022-09-24T02:17:40;100766.69;;;13.51;100.00
2673;BME280;1346;51.558;6.996;2022-09-24T02:20:13;100758.78;;;13.50;100.00
2673;BME280;1346;51.558;6.996;2022-09-24T02:22:43;100763.31;;;13.49;100.00
2673;BME280;1346;51.558;6.996;2022-09-24T02:25:15;100758.13;;;13.48;100.00
2673;BME280;1346;51.558;6.996;2022-09-24T02:27:44;100760.97;;;13.46;100.00
2673;BME280;1346;51.558;6.996;2022-09-24T02:30:12;100753.06;;;13.45;100.00
2673;BME280;1346;51.558;6.996;2022-09-24T02:32:40;100742.50;;;13.43;100.00
2673;BME280;1346;51.558;6.996;2022-09-24T02:35:11;100739.28;;;13.40;100.00
2673;BME280;1346;51.558;6.996;2022-09-24T02:37:39;100742.16;;;13.38;100.00
2673;BME280;1346;51.558;6.996;2022-09-24T02:40:10;100736.28;;;13.34;100.00
2673;BME280;1346;51.558;6.996;2022-09-24T02:42:38;100740.13;;;13.32;100.00
2673;BME280;1346;51.558;6.996;2022-09-24T02:45:06;100735.78;;;13.31;100.00
2673;BME280;1346;51.558;6.996;2022-09-24T02:47:35;100727.03;;;13.29;100.00
2673;BME280;1346;51.558;6.996;2022-09-24T02:50:02;100730.72;;;13.28;100.00
2673;BME280;1346;51.558;6.996;2022-09-24T02:52:29;100723.66;;;13.27;100.00
2673;BME280;1346;51.558;6.996;2022-09-24T02:54:56;100726.34;;;13.27;100.00
2673;BME280;1346;51.558;6.996;2022-09-24T02:57:23;100725.69;;;13.25;100.00
2673;BME280;1346;51.558;6.996;2022-09-24T02:59:50;100729.22;;;13.25;100.00
2673;BME280;1346;51.558;6.996;2022-09-24T03:02:17;100723.81;;;13.25;100.00
2673;BME280;1346;51.558;6.996;2022-09-24T03:04:45;100730.22;;;13.24;100.00
2673;BME280;1346;51.558;6.996;2022-09-24T03:07:12;100728.38;;;13.25;100.00
2673;BME280;1346;51.558;6.996;2022-09-24T03:09:40;100725.88;;;13.23;100.00
2673;BME280;1346;51.558;6.996;2022-09-24T03:12:07;100726.00;;;13.22;100.00
2673;BME280;1346;51.558;6.996;2022-09-24T03:14:34;100718.13;;;13.20;100.00
2673;BME280;1346;51.558;6.996;2022-09-24T03:17:01;100720.00;;;13.20;100.00
2673;BME280;1346;51.558;6.996;2022-09-24T03:19:28;100719.31;;;13.18;100.00
2673;BME280;1346;51.558;6.996;2022-09-24T03:21:56;100720.97;;;13.19;100.00
2673;BME280;1346;51.558;6.996;2022-09-24T03:24:23;100710.56;;;13.16;100.00
2673;BME280;1346;51.558;6.996;2022-09-24T03:26:50;100712.22;;;13.17;100.00
2673;BME280;1346;51.558;6.996;2022-09-24T03:29:17;100711.41;;;13.16;100.00
2673;BME280;1346;51.558;6.996;2022-09-24T03:32:04;100704.16;;;13.17;100.00
2673;BME280;1346;51.558;6.996;2022-09-24T03:34:30;100709.72;;;13.15;100.00
2673;BME280;1346;51.558;6.996;2022-09-24T03:36:58;100703.34;;;13.16;100.00
2673;BME280;1346;51.558;6.996;2022-09-24T03:39:25;100702.31;;;13.17;100.00
2673;BME280;1346;51.558;6.996;2022-09-24T03:41:52;100712.06;;;13.18;100.00
2673;BME280;1346;51.558;6.996;2022-09-24T03:44:19;100710.22;;;13.19;100.00
2673;BME280;1346;51.558;6.996;2022-09-24T03:46:46;100702.16;;;13.19;100.00
2673;BME280;1346;51.558;6.996;2022-09-24T03:49:14;100705.69;;;13.19;100.00
2673;BME280;1346;51.558;6.996;2022-09-24T03:51:41;100695.78;;;13.20;100.00
2673;BME280;1346;51.558;6.996;2022-09-24T03:54:10;100703.16;;;13.18;100.00
2673;BME280;1346;51.558;6.996;2022-09-24T03:56:37;100703.16;;;13.18;100.00
2673;BME280;1346;51.558;6.996;2022-09-24T03:59:04;100702.31;;;13.17;100.00
2673;BME280;1346;51.558;6.996;2022-09-24T04:01:31;100697.78;;;13.18;100.00
2673;BME280;1346;51.558;6.996;2022-09-24T04:04:01;100692.41;;;13.18;100.00
2673;BME280;1346;51.558;6.996;2022-09-24T04:06:28;100696.94;;;13.17;100.00
2673;BME280;1346;51.558;6.996;2022-09-24T04:08:55;100688.88;;;13.17;100.00
2673;BME280;1346;51.558;6.996;2022-09-24T04:11:24;100686.34;;;13.16;100.00
2673;BME280;1346;51.558;6.996;2022-09-24T04:13:51;100680.13;;;13.15;100.00
2673;BME280;1346;51.558;6.996;2022-09-24T04:16:19;100681.31;;;13.13;100.00
2673;BME280;1346;51.558;6.996;2022-09-24T04:18:46;100680.66;;;13.11;100.00
2673;BME280;1346;51.558;6.996;2022-09-24T04:21:13;100677.28;;;13.09;100.00
2673;BME280;1346;51.558;6.996;2022-09-24T04:23:40;100681.81;;;13.08;100.00
2673;BME280;1346;51.558;6.996;2022-09-24T04:26:07;100678.47;;;13.06;100.00
2673;BME280;1346;51.558;6.996;2022-09-24T04:28:36;100675.78;;;13.06;100.00
2673;BME280;1346;51.558;6.996;2022-09-24T04:31:03;100672.41;;;13.04;100.00
2673;BME280;1346;51.558;6.996;2022-09-24T04:33:30;100680.50;;;13.04;100.00
2673;BME280;1346;51.558;6.996;2022-09-24T04:35:57;100675.94;;;13.05;100.00
2673;BME280;1346;51.558;6.996;2022-09-24T04:38:24;100676.94;;;13.04;100.00
2673;BME280;1346;51.558;6.996;2022-09-24T04:40:51;100673.41;;;13.03;100.00
2673;BME280;1346;51.558;6.996;2022-09-24T04:43:18;100678.78;;;13.03;100.00
2673;BME280;1346;51.558;6.996;2022-09-24T04:45:46;100678.97;;;13.02;100.00
2673;BME280;1346;51.558;6.996;2022-09-24T04:48:13;100676.28;;;13.02;100.00
2673;BME280;1346;51.558;6.996;2022-09-24T04:50:40;100685.19;;;13.02;100.00
2673;BME280;1346;51.558;6.996;2022-09-24T04:53:08;100677.25;;;13.01;100.00
2673;BME280;1346;51.558;6.996;2022-09-24T04:55:35;100671.22;;;12.99;100.00
2673;BME280;1346;51.558;6.996;2022-09-24T04:58:02;100668.69;;;12.97;100.00
2673;BME280;1346;51.558;6.996;2022-09-24T05:00:29;100663.31;;;12.97;100.00
2673;BME280;1346;51.558;6.996;2022-09-24T05:03:00;100673.91;;;12.99;100.00
2673;BME280;1346;51.558;6.996;2022-09-24T05:05:29;100674.06;;;12.97;100.00
2673;BME280;1346;51.558;6.996;2022-09-24T05:07:57;100678.59;;;12.97;100.00
2673;BME280;1346;51.558;6.996;2022-09-24T05:10:25;100681.47;;;12.95;100.00
2673;BME280;1346;51.558;6.996;2022-09-24T05:12:52;100681.63;;;12.94;100.00
2673;BME280;1346;51.558;6.996;2022-09-24T05:15:19;100676.44;;;12.92;100.00
2673;BME280;1346;51.558;6.996;2022-09-24T05:17:47;100678.44;;;12.90;100.00
2673;BME280;1346;51.558;6.996;2022-09-24T05:20:16;100682.97;;;12.90;100.00
2673;BME280;1346;51.558;6.996;2022-09-24T05:22:44;100679.63;;;12.88;100.00
2673;BME280;1346;51.558;6.996;2022-09-24T05:25:13;100682.47;;;12.86;100.00
2673;BME280;1346;51.558;6.996;2022-09-24T05:27:44;100680.63;;;12.87;100.00
2673;BME280;1346;51.558;6.996;2022-09-24T05:30:11;100682.47;;;12.86;100.00
2673;BME280;1346;51.558;6.996;2022-09-24T05:32:38;100686.00;;;12.87;100.00
2673;BME280;1346;51.558;6.996;2022-09-24T05:35:06;100678.09;;;12.85;100.00
2673;BME280;1346;51.558;6.996;2022-09-24T05:37:36;100679.78;;;12.86;100.00
2673;BME280;1346;51.558;6.996;2022-09-24T05:40:05;100680.44;;;12.88;100.00
2673;BME280;1346;51.558;6.996;2022-09-24T05:42:46;100681.47;;;12.87;100.00
2673;BME280;1346;51.558;6.996;2022-09-24T05:45:13;100684.16;;;12.87;100.00
2673;BME280;1346;51.558;6.996;2022-09-24T05:47:43;100687.69;;;12.88;100.00
2673;BME280;1346;51.558;6.996;2022-09-24T05:50:10;100695.75;;;12.88;100.00
2673;BME280;1346;51.558;6.996;2022-09-24T05:52:39;100687.03;;;12.86;100.00
2673;BME280;1346;51.558;6.996;2022-09-24T05:55:09;100691.53;;;12.85;100.00
2673;BME280;1346;51.558;6.996;2022-09-24T05:57:37;100696.94;;;12.85;100.00
2673;BME280;1346;51.558;6.996;2022-09-24T06:00:06;100695.09;;;12.86;100.00
2673;BME280;1346;51.558;6.996;2022-09-24T06:02:33;100697.59;;;12.87;100.00
2673;BME280;1346;51.558;6.996;2022-09-24T06:05:00;100702.97;;;12.87;100.00
2673;BME280;1346;51.558;6.996;2022-09-24T06:07:26;100697.44;;;12.89;100.00
2673;BME280;1346;51.558;6.996;2022-09-24T06:09:55;100697.25;;;12.90;100.00
2673;BME280;1346;51.558;6.996;2022-09-24T06:12:23;100697.94;;;12.92;100.00
2673;BME280;1346;51.558;6.996;2022-09-24T06:14:50;100701.31;;;12.94;100.00
2673;BME280;1346;51.558;6.996;2022-09-24T06:17:18;100695.59;;;12.97;100.00
2673;BME280;1346;51.558;6.996;2022-09-24T06:19:45;100701.47;;;13.01;100.00
2673;BME280;1346;51.558;6.996;2022-09-24T06:22:12;100695.78;;;13.04;100.00
2673;BME280;1346;51.558;6.996;2022-09-24T06:24:40;100700.00;;;13.06;100.00
2673;BME280;1346;51.558;6.996;2022-09-24T06:27:08;100705.72;;;13.11;100.00
2673;BME280;1346;51.558;6.996;2022-09-24T06:29:35;100707.03;;;13.15;100.00
2673;BME280;1346;51.558;6.996;2022-09-24T06:32:02;100704.66;;;13.20;100.00
2673;BME280;1346;51.558;6.996;2022-09-24T06:34:29;100713.91;;;13.26;100.00
2673;BME280;1346;51.558;6.996;2022-09-24T06:36:56;100716.75;;;13.32;100.00
2673;BME280;1346;51.558;6.996;2022-09-24T06:39:23;100719.78;;;13.38;100.00
2673;BME280;1346;51.558;6.996;2022-09-24T06:41:50;100712.88;;;13.43;100.00
2673;BME280;1346;51.558;6.996;2022-09-24T06:44:19;100711.38;;;13.49;100.00
2673;BME280;1346;51.558;6.996;2022-09-24T06:46:46;100721.44;;;13.55;100.00
2673;BME280;1346;51.558;6.996;2022-09-24T06:49:13;100724.44;;;13.60;100.00
2673;BME280;1346;51.558;6.996;2022-09-24T06:51:40;100724.59;;;13.66;100.00
2673;BME280;1346;51.558;6.996;2022-09-24T06:54:07;100725.59;;;13.73;100.00
2673;BME280;1346;51.558;6.996;2022-09-24T06:56:34;100719.53;;;13.79;100.00
2673;BME280;1346;51.558;6.996;2022-09-24T06:59:01;100724.72;;;13.89;100.00
2673;BME280;1346;51.558;6.996;2022-09-24T07:01:29;100718.47;;;13.96;100.00
2673;BME280;1346;51.558;6.996;2022-09-24T07:03:56;100715.72;;;14.04;100.00
2673;BME280;1346;51.558;6.996;2022-09-24T07:06:23;100717.53;;;14.12;100.00
2673;BME280;1346;51.558;6.996;2022-09-24T07:08:50;100722.22;;;14.18;100.00
2673;BME280;1346;51.558;6.996;2022-09-24T07:11:17;100722.53;;;14.23;100.00
2673;BME280;1346;51.558;6.996;2022-09-24T07:13:44;100726.63;;;14.27;100.00
2673;BME280;1346;51.558;6.996;2022-09-24T07:16:11;100725.03;;;14.32;100.00
2673;BME280;1346;51.558;6.996;2022-09-24T07:18:39;100727.88;;;14.39;100.00
2673;BME280;1346;51.558;6.996;2022-09-24T07:21:06;100727.00;;;14.46;100.00
2673;BME280;1346;51.558;6.996;2022-09-24T07:23:33;100727.78;;;14.55;100.00
2673;BME280;1346;51.558;6.996;2022-09-24T07:26:00;100732.75;;;14.66;100.00
2673;BME280;1346;51.558;6.996;2022-09-24T07:28:27;100743.16;;;14.77;100.00
2673;BME280;1346;51.558;6.996;2022-09-24T07:30:58;100735.00;;;14.85;100.00
2673;BME280;1346;51.558;6.996;2022-09-24T07:33:25;100742.38;;;14.91;100.00
2673;BME280;1346;51.558;6.996;2022-09-24T07:35:53;100739.44;;;15.01;100.00
2673;BME280;1346;51.558;6.996;2022-09-24T07:38:20;100745.59;;;15.09;100.00
2673;BME280;1346;51.558;6.996;2022-09-24T07:40:47;100753.63;;;15.17;100.00
2673;BME280;1346;51.558;6.996;2022-09-24T07:43:14;100743.97;;;15.23;100.00
2673;BME280;1346;51.558;6.996;2022-09-24T07:45:42;100748.00;;;15.27;100.00
2673;BME280;1346;51.558;6.996;2022-09-24T07:48:10;100756.38;;;15.32;100.00
2673;BME280;1346;51.558;6.996;2022-09-24T07:50:39;100745.41;;;15.33;100.00
2673;BME280;1346;51.558;6.996;2022-09-24T07:53:10;100753.78;;;15.38;100.00
2673;BME280;1346;51.558;6.996;2022-09-24T07:55:38;100758.00;;;15.41;100.00
2673;BME280;1346;51.558;6.996;2022-09-24T07:58:06;100754.13;;;15.43;100.00
2673;BME280;1346;51.558;6.996;2022-09-24T08:00:34;100753.56;;;15.48;100.00
2673;BME280;1346;51.558;6.996;2022-09-24T08:03:01;100754.69;;;15.53;100.00
2673;BME280;1346;51.558;6.996;2022-09-24T08:05:28;100761.69;;;15.62;100.00
2673;BME280;1346;51.558;6.996;2022-09-24T08:07:56;100758.91;;;15.70;100.00
2673;BME280;1346;51.558;6.996;2022-09-24T08:10:26;100753.59;;;15.77;100.00
2673;BME280;1346;51.558;6.996;2022-09-24T08:12:53;100758.63;;;15.80;100.00
2673;BME280;1346;51.558;6.996;2022-09-24T08:15:22;100757.44;;;15.83;100.00
2673;BME280;1346;51.558;6.996;2022-09-24T08:17:49;100764.13;;;15.87;100.00
2673;BME280;1346;51.558;6.996;2022-09-24T08:20:16;100753.78;;;15.90;100.00
2673;BME280;1346;51.558;6.996;2022-09-24T08:22:44;100762.63;;;15.99;100.00
2673;BME280;1346;51.558;6.996;2022-09-24T08:25:11;100763.19;;;16.09;100.00
2673;BME280;1346;51.558;6.996;2022-09-24T08:27:39;100752.66;;;16.14;100.00
2673;BME280;1346;51.558;6.996;2022-09-24T08:30:07;100759.66;;;16.23;100.00
2673;BME280;1346;51.558;6.996;2022-09-24T08:32:34;100772.25;;;16.30;100.00
2673;BME280;1346;51.558;6.996;2022-09-24T08:35:01;100762.34;;;16.37;100.00
2673;BME280;1346;51.558;6.996;2022-09-24T08:37:28;100762.44;;;16.44;100.00
2673;BME280;1346;51.558;6.996;2022-09-24T08:39:56;100762.53;;;16.50;100.00
2673;BME280;1346;51.558;6.996;2022-09-24T08:42:34;100775.09;;;16.58;100.00
2673;BME280;1346;51.558;6.996;2022-09-24T08:45:07;100763.34;;;16.65;100.00
2673;BME280;1346;51.558;6.996;2022-09-24T08:47:55;100765.47;;;16.70;100.00
2673;BME280;1346;51.558;6.996;2022-09-24T08:50:27;100765.72;;;16.75;100.00
2673;BME280;1346;51.558;6.996;2022-09-24T08:53:05;100770.38;;;16.81;100.00
2673;BME280;1346;51.558;6.996;2022-09-24T08:55:42;100769.41;;;16.88;100.00
2673;BME280;1346;51.558;6.996;2022-09-24T08:58:30;100772.22;;;16.95;100.00
2673;BME280;1346;51.558;6.996;2022-09-24T09:01:10;100777.63;;;16.95;100.00
2673;BME280;1346;51.558;6.996;2022-09-24T09:03:45;100768.00;;;16.92;100.00
2673;BME280;1346;51.558;6.996;2022-09-24T09:06:42;100775.94;;;16.94;100.00
2673;BME280;1346;51.558;6.996;2022-09-24T09:09:15;100775.53;;;16.97;100.00
2673;BME280;1346;51.558;6.996;2022-09-24T09:11:47;100770.38;;;17.02;100.00
2673;BME280;1346;51.558;6.996;2022-09-24T09:14:18;100775.25;;;17.07;100.00
2673;BME280;1346;51.558;6.996;2022-09-24T09:16:51;100778.50;;;17.02;100.00
2673;BME280;1346;51.558;6.996;2022-09-24T09:19:23;100777.75;;;17.08;100.00
2673;BME280;1346;51.558;6.996;2022-09-24T09:21:56;100779.03;;;17.12;100.00
2673;BME280;1346;51.558;6.996;2022-09-24T09:24:32;100776.50;;;17.11;100.00
2673;BME280;1346;51.558;6.996;2022-09-24T09:27:11;100788.38;;;17.10;100.00
2673;BME280;1346;51.558;6.996;2022-09-24T09:29:40;100782.78;;;17.11;100.00
2673;BME280;1346;51.558;6.996;2022-09-24T09:32:20;100783.22;;;17.15;100.00
2673;BME280;1346;51.558;6.996;2022-09-24T09:34:58;100780.56;;;17.21;100.00
2673;BME280;1346;51.558;6.996;2022-09-24T09:37:38;100779.16;;;17.25;100.00
2673;BME280;1346;51.558;6.996;2022-09-24T09:40:34;100778.56;;;17.30;100.00
2673;BME280;1346;51.558;6.996;2022-09-24T09:43:04;100784.69;;;17.38;100.00
2673;BME280;1346;51.558;6.996;2022-09-24T09:45:39;100777.94;;;17.49;100.00
2673;BME280;1346;51.558;6.996;2022-09-24T09:48:09;100780.56;;;17.63;100.00
2673;BME280;1346;51.558;6.996;2022-09-24T09:50:41;100775.97;;;17.64;100.00
2673;BME280;1346;51.558;6.996;2022-09-24T09:53:19;100790.19;;;17.66;100.00
2673;BME280;1346;51.558;6.996;2022-09-24T09:55:52;100780.03;;;17.74;100.00
2673;BME280;1346;51.558;6.996;2022-09-24T09:58:23;100777.72;;;17.71;100.00
2673;BME280;1346;51.558;6.996;2022-09-24T10:00:51;100773.97;;;17.72;100.00
2673;BME280;1346;51.558;6.996;2022-09-24T10:03:26;100783.97;;;17.72;100.00
2673;BME280;1346;51.558;6.996;2022-09-24T10:05:58;100778.69;;;17.64;100.00
2673;BME280;1346;51.558;6.996;2022-09-24T10:08:28;100776.94;;;17.56;100.00
2673;BME280;1346;51.558;6.996;2022-09-24T10:10:56;100783.41;;;17.55;100.00
2673;BME280;1346;51.558;6.996;2022-09-24T10:13:24;100778.25;;;17.60;100.00
2673;BME280;1346;51.558;6.996;2022-09-24T10:15:53;100772.81;;;17.60;100.00
2673;BME280;1346;51.558;6.996;2022-09-24T10:18:29;100779.88;;;17.55;100.00
2673;BME280;1346;51.558;6.996;2022-09-24T10:20:59;100776.91;;;17.50;100.00
2673;BME280;1346;51.558;6.996;2022-09-24T10:23:34;100775.56;;;17.39;100.00
2673;BME280;1346;51.558;6.996;2022-09-24T10:26:03;100775.47;;;17.33;100.00
2673;BME280;1346;51.558;6.996;2022-09-24T10:28:31;100774.72;;;17.18;100.00
2673;BME280;1346;51.558;6.996;2022-09-24T10:31:19;100776.44;;;17.04;100.00
2673;BME280;1346;51.558;6.996;2022-09-24T10:33:52;100773.47;;;16.99;100.00
2673;BME280;1346;51.558;6.996;2022-09-24T10:36:23;100773.09;;;17.02;100.00
2673;BME280;1346;51.558;6.996;2022-09-24T10:39:03;100782.50;;;17.06;100.00
2673;BME280;1346;51.558;6.996;2022-09-24T10:41:30;100783.91;;;17.02;100.00
2673;BME280;1346;51.558;6.996;2022-09-24T10:44:02;100784.69;;;16.96;100.00
2673;BME280;1346;51.558;6.996;2022-09-24T10:46:50;100785.84;;;16.87;100.00
2673;BME280;1346;51.558;6.996;2022-09-24T10:49:42;100784.94;;;16.80;100.00
2673;BME280;1346;51.558;6.996;2022-09-24T10:52:31;100780.75;;;16.77;100.00
2673;BME280;1346;51.558;6.996;2022-09-24T10:55:14;100784.13;;;16.79;100.00
2673;BME280;1346;51.558;6.996;2022-09-24T10:57:54;100780.88;;;16.90;100.00
2673;BME280;1346;51.558;6.996;2022-09-24T11:00:25;100779.34;;;17.03;100.00
2673;BME280;1346;51.558;6.996;2022-09-24T11:03:31;100781.56;;;17.14;100.00
2673;BME280;1346;51.558;6.996;2022-09-24T11:06:16;100781.56;;;17.14;100.00
2673;BME280;1346;51.558;6.996;2022-09-24T11:09:04;100788.56;;;17.08;100.00
2673;BME280;1346;51.558;6.996;2022-09-24T11:11:44;100788.97;;;17.05;100.00
2673;BME280;1346;51.558;6.996;2022-09-24T11:14:32;100786.00;;;17.00;100.00
2673;BME280;1346;51.558;6.996;2022-09-24T11:20:21;100788.44;;;16.95;100.00
2673;BME280;1346;51.558;6.996;2022-09-24T11:23:21;100791.22;;;17.02;100.00
2673;BME280;1346;51.558;6.996;2022-09-24T11:26:00;100787.78;;;17.14;100.00
2673;BME280;1346;51.558;6.996;2022-09-24T11:28:59;100788.41;;;17.31;100.00
2673;BME280;1346;51.558;6.996;2022-09-24T11:31:35;100790.84;;;17.47;100.00
2673;BME280;1346;51.558;6.996;2022-09-24T11:34:40;100791.16;;;17.58;100.00
2673;BME280;1346;51.558;6.996;2022-09-24T11:37:24;100786.22;;;17.68;100.00
2673;BME280;1346;51.558;6.996;2022-09-24T11:40:21;100785.69;;;17.79;100.00
2673;BME280;1346;51.558;6.996;2022-09-24T11:43:05;100782.66;;;17.95;100.00
2673;BME280;1346;51.558;6.996;2022-09-24T11:45:50;100783.78;;;18.07;100.00
2673;BME280;1346;51.558;6.996;2022-09-24T11:48:41;100781.34;;;18.19;100.00
2673;BME280;1346;51.558;6.996;2022-09-24T11:51:20;100781.63;;;18.31;100.00
2673;BME280;1346;51.558;6.996;2022-09-24T11:53:57;100783.75;;;18.35;100.00
2673;BME280;1346;51.558;6.996;2022-09-24T11:56:31;100793.38;;;18.38;100.00
2673;BME280;1346;51.558;6.996;2022-09-24T11:59:09;100784.16;;;18.39;100.00
2673;BME280;1346;51.558;6.996;2022-09-24T12:01:45;100790.09;;;18.49;100.00
2673;BME280;1346;51.558;6.996;2022-09-24T12:04:17;100785.75;;;18.54;100.00
2673;BME280;1346;51.558;6.996;2022-09-24T12:06:50;100778.25;;;18.56;100.00
2673;BME280;1346;51.558;6.996;2022-09-24T12:09:24;100779.69;;;18.59;100.00
2673;BME280;1346;51.558;6.996;2022-09-24T12:11:58;100791.59;;;18.58;100.00
2673;BME280;1346;51.558;6.996;2022-09-24T12:14:42;100784.47;;;18.57;100.00
2673;BME280;1346;51.558;6.996;2022-09-24T12:17:17;100783.84;;;18.55;100.00
2673;BME280;1346;51.558;6.996;2022-09-24T12:19:52;100774.03;;;18.54;100.00
2673;BME280;1346;51.558;6.996;2022-09-24T12:22:22;100781.78;;;18.57;100.00
2673;BME280;1346;51.558;6.996;2022-09-24T12:24:52;100774.06;;;18.60;100.00
2673;BME280;1346;51.558;6.996;2022-09-24T12:27:27;100773.63;;;18.57;100.00
2673;BME280;1346;51.558;6.996;2022-09-24T12:30:02;100782.19;;;18.54;100.00
2673;BME280;1346;51.558;6.996;2022-09-24T12:32:52;100775.31;;;18.58;100.00
2673;BME280;1346;51.558;6.996;2022-09-24T12:35:38;100777.63;;;18.61;100.00
2673;BME280;1346;51.558;6.996;2022-09-24T12:38:15;100774.69;;;18.56;100.00
2673;BME280;1346;51.558;6.996;2022-09-24T12:41:18;100762.13;;;18.48;100.00
2673;BME280;1346;51.558;6.996;2022-09-24T12:43:53;100776.72;;;18.41;100.00
2673;BME280;1346;51.558;6.996;2022-09-24T12:46:25;100770.38;;;18.34;100.00
2673;BME280;1346;51.558;6.996;2022-09-24T12:48:54;100771.78;;;18.23;100.00
2673;BME280;1346;51.558;6.996;2022-09-24T12:51:21;100768.84;;;18.18;100.00
2673;BME280;1346;51.558;6.996;2022-09-24T12:53:58;100771.50;;;18.12;100.00
2673;BME280;1346;51.558;6.996;2022-09-24T12:56:27;100770.84;;;18.03;100.00
2673;BME280;1346;51.558;6.996;2022-09-24T12:58:57;100767.69;;;17.99;100.00
2673;BME280;1346;51.558;6.996;2022-09-24T13:01:29;100761.22;;;18.00;100.00
2673;BME280;1346;51.558;6.996;2022-09-24T13:04:26;100767.69;;;17.99;100.00
2673;BME280;1346;51.558;6.996;2022-09-24T13:06:51;100773.09;;;17.99;100.00
2673;BME280;1346;51.558;6.996;2022-09-24T13:09:35;100775.19;;;17.97;100.00
2673;BME280;1346;51.558;6.996;2022-09-24T13:12:18;100771.38;;;17.92;100.00
2673;BME280;1346;51.558;6.996;2022-09-24T13:14:53;100770.13;;;17.88;100.00
2673;BME280;1346;51.558;6.996;2022-09-24T13:17:22;100773.00;;;17.80;100.00
2673;BME280;1346;51.558;6.996;2022-09-24T13:19:56;100772.34;;;17.78;100.00
2673;BME280;1346;51.558;6.996;2022-09-24T13:22:27;100765.63;;;17.74;100.00
2673;BME280;1346;51.558;6.996;2022-09-24T13:25:25;100764.78;;;17.73;100.00
2673;BME280;1346;51.558;6.996;2022-09-24T13:27:59;100760.00;;;17.75;100.00
2673;BME280;1346;51.558;6.996;2022-09-24T13:30:39;100761.88;;;17.75;100.00
2673;BME280;1346;51.558;6.996;2022-09-24T13:33:20;100762.72;;;17.75;100.00